Time;durP1;ratioP1;P1;durP2;ratioP2;P2;SDS_P1;SDS_P2;PMS_P1;PMS_P2;Temp;Humidity;BMP_temperature;BMP_pressure;BME280_temperature;BME280_humidity;BME280_pressure;Samples;Min_cycle;Max_cycle;Signal;HPM_P1;HPM_P2
2022/04/28 00:00:50;;;;;;;3.63;2.80;;;;;;;7.86;62.00;99790.63;5131630;27;40769;-74
2022/04/28 00:03:18;;;;;;;3.17;2.70;;;;;;;7.89;62.03;99798.44;5131509;27;41549;-75
2022/04/28 00:05:46;;;;;;;3.30;3.00;;;;;;;7.86;62.18;99805.59;5131829;27;43736;-76
2022/04/28 00:08:16;;;;;;;2.70;2.50;;;;;;;7.82;62.08;99801.34;5133029;27;43229;-75
2022/04/28 00:10:43;;;;;;;3.67;3.07;;;;;;;7.77;62.20;99792.75;5131497;27;39740;-75
2022/04/28 00:13:13;;;;;;;3.40;2.97;;;;;;;7.73;62.20;99804.31;5131369;27;42066;-76
2022/04/28 00:15:40;;;;;;;3.90;3.00;;;;;;;7.70;62.22;99799.13;5114225;27;41757;-75
2022/04/28 00:18:08;;;;;;;2.83;2.53;;;;;;;7.66;62.39;99803.69;5132109;27;41238;-76
2022/04/28 00:20:35;;;;;;;3.47;3.17;;;;;;;7.65;62.38;99798.47;5131589;27;40143;-75
2022/04/28 00:23:04;;;;;;;3.37;3.07;;;;;;;7.60;62.46;99803.03;5114302;27;41877;-75
2022/04/28 00:25:33;;;;;;;2.90;2.00;;;;;;;7.58;62.27;99811.84;5113857;27;42813;-75
2022/04/28 00:28:00;;;;;;;3.47;2.67;;;;;;;7.55;62.53;99811.94;5131597;27;42159;-76
2022/04/28 00:30:28;;;;;;;5.00;3.00;;;;;;;7.51;62.35;99813.00;5114634;27;39793;-76
2022/04/28 00:32:56;;;;;;;2.80;2.60;;;;;;;7.49;62.72;99809.53;5131760;27;40555;-74
2022/04/28 00:35:24;;;;;;;3.07;2.30;;;;;;;7.44;62.71;99808.81;5130054;27;42715;-75
2022/04/28 00:37:51;;;;;;;3.40;3.10;;;;;;;7.41;62.74;99808.09;5131779;27;42309;-75
2022/04/28 00:40:19;;;;;;;3.40;2.87;;;;;;;7.39;62.92;99813.41;5132990;27;39858;-75
2022/04/28 00:42:47;;;;;;;3.87;2.87;;;;;;;7.35;62.94;99819.69;5132313;27;41630;-74
2022/04/28 00:45:16;;;;;;;3.33;2.73;;;;;;;7.31;63.39;99812.78;5132291;27;20233;-76
2022/04/28 00:50:41;;;;;;;3.33;2.67;;;;;;;7.23;63.73;99809.56;5130061;27;41063;-75
2022/04/28 00:53:12;;;;;;;3.73;3.23;;;;;;;7.19;64.01;99815.84;5128351;27;42654;-76
2022/04/28 00:55:41;;;;;;;4.37;2.60;;;;;;;7.15;64.44;99811.59;5128859;27;42633;-75
2022/04/28 00:58:11;;;;;;;2.80;2.50;;;;;;;7.13;64.66;99813.44;5131244;27;40998;-75
2022/04/28 01:00:39;;;;;;;2.97;2.73;;;;;;;7.10;64.60;99813.53;5113617;27;38854;-75
2022/04/28 01:03:06;;;;;;;4.40;3.13;;;;;;;6.95;63.95;99792.94;5113765;27;44065;-75
2022/04/28 01:05:34;;;;;;;6.23;2.93;;;;;;;7.02;64.22;99810.28;5131084;27;43815;-76
2022/04/28 01:08:02;;;;;;;3.57;2.70;;;;;;;7.03;64.18;99825.19;5130485;27;42349;-76
2022/04/28 01:10:30;;;;;;;3.40;3.03;;;;;;;6.96;64.20;99818.38;5095249;28;39813;-75
2022/04/28 01:12:57;;;;;;;3.27;2.73;;;;;;;6.96;64.33;99827.13;5110296;28;41609;-76
2022/04/28 01:15:26;;;;;;;3.43;3.10;;;;;;;6.94;64.15;99828.09;5110371;28;42858;-75
2022/04/28 01:17:54;;;;;;;3.37;3.00;;;;;;;6.91;64.14;99834.34;5110611;28;42343;-75
2022/04/28 01:20:22;;;;;;;2.43;2.23;;;;;;;6.89;64.43;99832.66;5129720;27;39660;-76
2022/04/28 01:22:50;;;;;;;2.97;2.43;;;;;;;6.85;64.10;99832.75;5131314;27;41594;-75
2022/04/28 01:25:18;;;;;;;3.17;2.83;;;;;;;6.82;64.13;99824.94;5131150;27;43740;-76
2022/04/28 01:27:46;;;;;;;2.67;2.47;;;;;;;6.81;64.23;99832.88;5131137;27;43155;-75
2022/04/28 01:30:15;;;;;;;4.13;3.40;;;;;;;6.76;64.24;99830.41;5130930;27;40843;-76
2022/04/28 01:32:57;;;;;;;3.83;2.80;;;;;;;6.73;64.24;99830.50;5127894;27;41806;-76
2022/04/28 01:35:26;;;;;;;2.37;2.17;;;;;;;6.70;64.45;99830.59;5130867;27;42532;-75
2022/04/28 01:37:55;;;;;;;3.20;2.87;;;;;;;6.69;64.82;99828.00;5113649;27;43847;-75
2022/04/28 01:40:23;;;;;;;3.60;2.77;;;;;;;6.65;64.71;99832.53;5130845;27;40286;-75
2022/04/28 01:42:51;;;;;;;2.87;2.30;;;;;;;6.60;64.80;99829.16;5113022;27;42866;-75
2022/04/28 01:45:21;;;;;;;2.73;2.53;;;;;;;6.62;65.29;99829.13;5129279;27;42721;-75
2022/04/28 01:48:07;;;;;;;3.40;2.47;;;;;;;6.59;65.62;99834.47;5133565;27;41424;-75
2022/04/28 01:54:57;;;;;;;3.80;3.40;;;;;;;6.57;65.50;99826.63;5117166;27;38784;-76
2022/04/28 01:56:29;;;;;;;3.10;2.80;;;;;;;6.51;65.12;99836.47;5132964;27;42822;-76
2022/04/28 01:59:20;;;;;;;4.20;3.10;;;;;;;6.42;65.07;99822.72;5126730;27;42026;-75
2022/04/28 02:02:08;;;;;;;3.30;2.70;;;;;;;6.43;65.36;99831.44;5081780;27;38780;-75
2022/04/28 02:04:36;;;;;;;2.53;2.33;;;;;;;6.40;65.61;99839.44;5133161;27;41989;-75
2022/04/28 02:07:06;;;;;;;4.20;2.77;;;;;;;6.37;65.43;99843.00;5116263;27;43979;-75
2022/04/28 02:09:35;;;;;;;4.43;2.77;;;;;;;6.34;65.26;99837.84;5116797;27;41009;-76
2022/04/28 02:12:05;;;;;;;2.77;2.30;;;;;;;6.31;65.47;99840.56;5106068;28;38945;-75
2022/04/28 02:14:48;;;;;;;3.27;2.40;;;;;;;6.18;65.72;99820.81;5096044;28;40305;-75
2022/04/28 02:17:36;;;;;;;2.93;2.60;;;;;;;6.16;65.76;99824.38;5096135;28;42849;-76
2022/04/28 02:20:05;;;;;;;3.57;2.77;;;;;;;6.22;65.80;99843.47;5131183;27;41547;-75
2022/04/28 02:22:36;;;;;;;3.23;2.60;;;;;;;6.22;65.62;99847.84;5096375;28;39072;-76
2022/04/28 02:25:06;;;;;;;3.73;2.90;;;;;;;6.20;65.84;99844.41;5132475;27;40505;-75
2022/04/28 02:27:33;;;;;;;3.40;2.67;;;;;;;6.17;65.52;99849.78;5116601;27;42779;-75
2022/04/28 02:30:01;;;;;;;2.73;2.47;;;;;;;6.16;65.67;99850.69;5133640;27;42519;-75
2022/04/28 02:33:08;;;;;;;2.87;2.57;;;;;;;6.13;66.19;99843.72;5133696;27;40155;-76
2022/04/28 02:35:18;;;;;;;2.37;2.17;;;;;;;6.08;66.20;99841.22;5116078;27;41806;-74
2022/04/28 02:37:46;;;;;;;3.47;2.70;;;;;;;6.07;66.15;99841.25;5133651;27;43745;-74
2022/04/28 02:40:16;;;;;;;3.53;2.40;;;;;;;6.05;66.49;99846.59;5133267;27;42409;-76
2022/04/28 02:42:44;;;;;;;3.03;2.73;;;;;;;6.03;66.51;99837.88;5114972;27;38823;-75
2022/04/28 02:45:11;;;;;;;3.57;2.83;;;;;;;6.01;66.32;99844.94;5133276;27;42663;-75
2022/04/28 02:47:44;;;;;;;2.80;2.60;;;;;;;6.00;66.50;99852.88;5116299;27;42933;-76
2022/04/28 02:50:12;;;;;;;2.73;2.53;;;;;;;5.99;66.40;99851.16;5115646;27;42208;-76
2022/04/28 02:52:41;;;;;;;3.10;2.80;;;;;;;5.82;66.37;99834.94;5121133;27;41031;-75
2022/04/28 02:55:10;;;;;;;3.43;2.63;;;;;;;5.92;66.30;99861.00;5112338;27;42695;-74
2022/04/28 02:57:39;;;;;;;2.83;2.53;;;;;;;5.88;66.29;99859.34;5112209;27;42971;-76
2022/04/28 03:00:08;;;;;;;3.33;2.40;;;;;;;5.85;66.32;99854.13;5114037;27;43189;-74
2022/04/28 03:02:46;;;;;;;2.20;2.00;;;;;;;5.72;66.37;99837.81;5116335;27;40051;-74
2022/04/28 03:05:13;;;;;;;2.57;2.17;;;;;;;5.79;66.30;99864.81;5115721;27;41700;-76
2022/04/28 03:10:49;;;;;;;2.30;2.00;;;;;;;5.72;66.35;99858.84;5129953;27;42199;-75
2022/04/28 03:13:21;;;;;;;2.63;2.30;;;;;;;5.65;66.20;99861.69;5115289;27;39765;-76
2022/04/28 03:15:54;;;;;;;1.97;1.80;;;;;;;5.66;66.23;99858.16;5115744;27;40818;-76
2022/04/28 03:18:28;;;;;;;3.13;2.77;;;;;;;5.54;66.63;99846.22;5126111;27;43317;-74
2022/04/28 03:20:57;;;;;;;2.70;2.30;;;;;;;5.62;66.54;99870.50;5115317;27;42409;-75
2022/04/28 03:23:25;;;;;;;3.23;2.70;;;;;;;5.58;66.74;99862.75;5115836;27;38550;-75
2022/04/28 03:25:53;;;;;;;3.43;2.20;;;;;;;5.46;66.40;99852.53;5115468;27;42192;-76
2022/04/28 03:28:22;;;;;;;4.37;2.80;;;;;;;5.52;66.33;99865.53;5115501;27;42568;-76
2022/04/28 03:30:51;;;;;;;2.23;2.03;;;;;;;5.50;66.51;99867.34;5132403;27;42302;-76
2022/04/28 03:33:23;;;;;;;2.43;2.10;;;;;;;5.48;66.93;99870.00;5114666;27;40045;-75
2022/04/28 03:35:50;;;;;;;3.40;3.10;;;;;;;5.45;67.28;99863.97;5131856;27;43594;-75
2022/04/28 03:38:18;;;;;;;2.83;2.47;;;;;;;5.43;67.39;99869.28;5132618;27;43670;-75
2022/04/28 03:40:47;;;;;;;3.30;2.97;;;;;;;5.35;67.52;99856.31;5132331;27;42243;-76
2022/04/28 03:43:15;;;;;;;3.27;2.67;;;;;;;5.38;67.29;99866.75;5115131;27;40495;-75
2022/04/28 03:45:44;;;;;;;2.90;2.30;;;;;;;5.28;67.45;99857.38;5132430;27;41741;-76
2022/04/28 03:48:19;;;;;;;2.93;2.63;;;;;;;5.34;67.28;99878.22;5129462;27;42799;-75
2022/04/28 03:50:46;;;;;;;2.83;2.53;;;;;;;5.31;67.41;99873.06;5132115;27;43147;-74
2022/04/28 03:53:14;;;;;;;2.87;2.53;;;;;;;5.21;67.21;99861.06;5132156;27;40752;-75
2022/04/28 03:55:41;;;;;;;2.97;2.47;;;;;;;5.27;67.22;99876.66;5131914;27;41770;-74
2022/04/28 03:58:09;;;;;;;3.23;2.50;;;;;;;5.25;67.06;99883.72;5114814;27;44640;-75
2022/04/28 04:00:37;;;;;;;3.03;2.67;;;;;;;5.23;67.29;99880.25;5114337;27;40398;-75
2022/04/28 04:03:11;;;;;;;3.43;2.70;;;;;;;5.25;67.14;99888.09;5114811;27;40010;-74
2022/04/28 04:05:38;;;;;;;2.67;2.23;;;;;;;5.23;67.30;99885.50;5131540;27;42723;-76
2022/04/28 04:08:06;;;;;;;2.30;2.07;;;;;;;5.22;67.26;99883.78;5131357;27;42489;-75
2022/04/28 04:10:36;;;;;;;2.43;2.17;;;;;;;5.22;67.28;99886.41;5113083;27;42292;-76
2022/04/28 04:13:06;;;;;;;2.20;1.97;;;;;;;5.21;67.25;99881.19;5110880;27;40033;-75
2022/04/28 04:15:41;;;;;;;2.73;2.40;;;;;;;5.23;67.54;99880.25;5097531;27;43084;-76
2022/04/28 04:18:25;;;;;;;3.27;2.50;;;;;;;5.23;67.65;99890.75;5129812;27;42721;-74
2022/04/28 04:21:03;;;;;;;2.70;2.37;;;;;;;5.26;67.63;99889.84;5112791;27;42265;-74
2022/04/28 04:23:32;;;;;;;4.37;2.80;;;;;;;5.27;67.41;99891.56;5114616;27;39780;-75
2022/04/28 04:26:01;;;;;;;2.30;1.90;;;;;;;5.30;67.38;99891.50;5131687;27;42551;-75
2022/04/28 04:28:29;;;;;;;3.03;2.53;;;;;;;5.32;67.50;99900.19;5114560;27;42958;-76
2022/04/28 04:34:07;;;;;;;2.57;2.10;;;;;;;5.37;67.38;99899.19;5112511;27;40495;-76
2022/04/28 04:36:34;;;;;;;4.03;3.20;;;;;;;5.40;67.14;99903.50;5096573;28;42176;-75
2022/04/28 04:39:02;;;;;;;5.73;3.20;;;;;;;5.45;67.27;99900.72;5127723;27;42810;-75
2022/04/28 04:41:34;;;;;;;5.63;3.20;;;;;;;5.51;67.06;99905.84;5111254;27;41348;-74
2022/04/28 04:44:04;;;;;;;3.67;2.83;;;;;;;5.57;66.97;99906.53;5117919;27;40620;-74
2022/04/28 04:46:32;;;;;;;3.87;2.60;;;;;;;5.66;67.05;99915.97;5119857;27;42692;-75
2022/04/28 04:49:19;;;;;;;3.97;3.03;;;;;;;5.73;66.90;99912.28;5131533;27;42051;-74
2022/04/28 04:51:53;;;;;;;3.83;2.47;;;;;;;5.80;67.07;99911.22;5114217;27;42611;-75
2022/04/28 04:54:22;;;;;;;3.00;2.70;;;;;;;5.87;66.81;99920.66;5131459;27;40003;-75
2022/04/28 04:56:52;;;;;;;3.30;2.87;;;;;;;5.95;66.82;99920.47;5130235;27;42658;-75
2022/04/28 04:59:20;;;;;;;2.77;2.47;;;;;;;6.05;67.00;99929.88;5112003;27;42363;-74
2022/04/28 05:01:48;;;;;;;3.10;2.70;;;;;;;6.13;67.08;99931.38;5128507;27;42629;-74
2022/04/28 05:04:37;;;;;;;3.20;2.40;;;;;;;6.23;67.35;99933.75;5098224;27;40877;-75
2022/04/28 05:07:14;;;;;;;3.07;2.77;;;;;;;6.28;67.34;99924.84;5130386;27;41694;-76
2022/04/28 05:09:42;;;;;;;4.77;3.27;;;;;;;6.41;67.39;99933.25;5129502;27;43533;-76
2022/04/28 05:12:10;;;;;;;3.20;2.90;;;;;;;6.50;66.97;99932.97;5111312;27;42164;-76
2022/04/28 05:14:53;;;;;;;3.83;3.00;;;;;;;6.62;67.08;99935.25;5113276;27;39956;-74
2022/04/28 05:17:23;;;;;;;2.97;2.50;;;;;;;6.71;66.92;99937.63;5113678;27;43723;-74
2022/04/28 05:20:10;;;;;;;3.73;2.90;;;;;;;6.82;66.98;99939.94;5113928;27;41801;-75
2022/04/28 05:23:00;;;;;;;2.73;2.50;;;;;;;6.97;67.26;99943.88;5095441;27;42298;-76
2022/04/28 05:25:53;;;;;;;3.30;3.00;;;;;;;7.10;66.72;99945.22;5081740;28;40503;-76
2022/04/28 05:28:40;;;;;;;4.50;3.17;;;;;;;7.23;66.85;99946.56;5118157;27;41027;-74
2022/04/28 05:31:31;;;;;;;3.33;2.90;;;;;;;7.36;67.17;99953.16;5096498;28;42113;-75
2022/04/28 05:34:18;;;;;;;3.30;2.97;;;;;;;7.49;66.83;99959.78;5110809;28;42193;-75
2022/04/28 05:37:12;;;;;;;3.70;3.30;;;;;;;7.65;67.19;99954.88;5096776;28;38572;-76
2022/04/28 05:39:41;;;;;;;4.63;3.53;;;;;;;7.78;67.74;99955.31;5096829;28;42042;-75
2022/04/28 05:42:09;;;;;;;4.77;3.70;;;;;;;7.95;67.50;99950.31;5150422;27;43679;-74
2022/04/28 05:47:22;;;;;;;3.23;3.00;;;;;;;8.51;66.68;99960.69;5079285;27;40020;-75
2022/04/28 05:49:50;;;;;;;3.83;3.43;;;;;;;8.79;66.05;99968.44;5117051;27;40731;-75
2022/04/28 05:52:20;;;;;;;4.90;3.77;;;;;;;8.97;66.20;99967.75;5134016;27;42954;-76
2022/04/28 05:54:50;;;;;;;5.37;4.03;;;;;;;9.12;66.01;99972.47;5108758;28;41247;-76
2022/04/28 05:57:18;;;;;;;3.90;3.47;;;;;;;9.39;65.74;99967.88;5113528;28;39897;-74
2022/04/28 05:59:46;;;;;;;4.93;3.93;;;;;;;9.56;65.64;99973.31;5113568;28;42556;-74
2022/04/28 06:02:32;;;;;;;5.40;4.70;;;;;;;9.62;65.84;99972.22;5113269;28;42016;-75
2022/04/28 06:05:01;;;;;;;5.07;3.90;;;;;;;9.56;65.99;99951.31;5095848;28;42441;-75
2022/04/28 06:07:31;;;;;;;5.47;4.10;;;;;;;9.80;66.24;99970.59;5113279;28;39692;-77
2022/04/28 06:09:59;;;;;;;4.50;3.80;;;;;;;10.01;65.77;99967.06;5130209;27;41987;-75
2022/04/28 06:12:28;;;;;;;4.30;3.90;;;;;;;10.32;65.10;99980.72;5113410;28;42704;-74
2022/04/28 06:15:21;;;;;;;5.47;4.43;;;;;;;10.71;64.70;99985.19;5111333;28;43129;-77
2022/04/28 06:18:09;;;;;;;4.43;4.03;;;;;;;10.89;64.62;99992.28;5105460;28;39102;-75
2022/04/28 06:20:37;;;;;;;4.43;4.03;;;;;;;10.98;64.36;99986.59;5095905;28;41701;-76
2022/04/28 06:23:09;;;;;;;4.23;3.83;;;;;;;11.21;64.19;99989.97;5096256;28;44335;-77
2022/04/28 06:25:42;;;;;;;6.27;4.73;;;;;;;11.65;63.13;99995.78;5095736;28;43921;-76
2022/04/28 06:28:11;;;;;;;6.80;4.67;;;;;;;12.12;61.19;99998.75;5113208;28;39982;-76
2022/04/28 06:30:41;;;;;;;5.40;4.50;;;;;;;12.44;60.54;100008.63;5110150;28;41870;-76
2022/04/28 06:33:23;;;;;;;6.80;4.43;;;;;;;13.06;59.18;100012.41;5101629;27;43544;-76
2022/04/28 06:36:01;;;;;;;5.70;4.20;;;;;;;13.81;57.85;100026.88;5131784;27;42132;-76
2022/04/28 06:38:36;;;;;;;5.40;4.70;;;;;;;14.23;56.61;100028.84;5116547;27;40625;-76
2022/04/28 06:41:06;;;;;;;4.13;3.73;;;;;;;14.43;55.83;100031.25;5133703;27;40617;-76
2022/04/28 06:43:37;;;;;;;5.20;4.70;;;;;;;14.28;55.56;100027.66;5116047;27;42745;-75
2022/04/28 06:46:24;;;;;;;4.93;4.37;;;;;;;14.04;55.83;100021.09;5122764;27;43204;-75
2022/04/28 06:49:10;;;;;;;5.80;4.60;;;;;;;13.94;56.06;100025.25;5112742;28;40148;-74
2022/04/28 06:51:56;;;;;;;5.37;4.87;;;;;;;14.05;56.17;100020.16;5113318;28;42028;-74
2022/04/28 06:54:43;;;;;;;6.10;5.50;;;;;;;14.45;56.08;100026.69;5119775;27;41895;-74
2022/04/28 06:57:13;;;;;;;5.60;5.00;;;;;;;14.68;55.22;100034.16;5132884;27;42278;-74
2022/04/28 06:59:42;;;;;;;5.57;4.93;;;;;;;14.96;54.15;100053.81;5133415;27;40148;-73
2022/04/28 07:02:14;;;;;;;5.53;4.93;;;;;;;15.00;53.92;100040.19;5133136;27;41914;-76
2022/04/28 07:04:44;;;;;;;6.37;5.20;;;;;;;14.93;54.49;100048.66;5105546;27;43509;-74
2022/04/28 07:07:16;;;;;;;5.37;4.53;;;;;;;15.00;54.89;100050.00;5132347;27;42292;-73
2022/04/28 07:09:48;;;;;;;6.13;4.77;;;;;;;15.02;55.19;100042.75;5145736;27;39726;-74
2022/04/28 07:12:16;;;;;;;5.20;4.70;;;;;;;15.09;55.36;100036.06;5153630;27;41752;-76
2022/04/28 07:14:59;;;;;;;5.77;5.10;;;;;;;15.27;54.85;100047.41;5132105;27;42714;-74
2022/04/28 07:17:45;;;;;;;6.00;5.10;;;;;;;15.67;54.18;100045.78;5130889;27;43005;-73
2022/04/28 07:20:14;;;;;;;5.43;4.90;;;;;;;16.19;52.20;100053.06;5149327;27;40357;-73
2022/04/28 07:22:42;;;;;;;5.50;4.83;;;;;;;16.71;51.96;100045.91;5153726;27;41609;-74
2022/04/28 07:25:12;;;;;;;6.97;5.50;;;;;;;16.87;50.96;100059.09;5137250;27;42744;-72
2022/04/28 07:27:40;;;;;;;6.13;5.53;;;;;;;16.87;51.08;100062.63;5115614;27;40905;-75
2022/04/28 07:30:36;;;;;;;5.80;5.20;;;;;;;16.96;50.59;100068.28;5111697;27;39957;-74
2022/04/28 07:33:06;;;;;;;7.43;5.83;;;;;;;17.18;49.75;100076.56;5112086;28;42145;-73
2022/04/28 07:35:34;;;;;;;5.63;4.80;;;;;;;17.65;48.64;100086.59;5131916;27;42770;-74
2022/04/28 07:38:21;;;;;;;6.30;5.13;;;;;;;17.87;49.03;100085.88;5133777;27;42864;-73
2022/04/28 07:41:14;;;;;;;6.63;5.33;;;;;;;18.08;49.35;100076.25;5115119;27;41396;-76
2022/04/28 07:43:42;;;;;;;6.03;5.03;;;;;;;18.83;46.69;100097.44;5113850;27;40573;-74
2022/04/28 07:46:09;;;;;;;5.80;5.30;;;;;;;19.50;45.93;100095.75;5131899;27;43614;-74
2022/04/28 07:48:37;;;;;;;6.27;5.27;;;;;;;20.11;43.72;100111.44;5132176;27;42196;-74
2022/04/28 07:51:05;;;;;;;5.93;5.07;;;;;;;20.75;42.74;100105.13;5115275;27;40065;-74
2022/04/28 07:53:33;;;;;;;5.83;4.90;;;;;;;21.32;42.27;100102.97;5131905;27;41475;-74
2022/04/28 07:56:15;;;;;;;5.30;4.77;;;;;;;21.47;41.54;100120.50;5132194;27;43231;-75
2022/04/28 07:58:48;;;;;;;5.30;4.80;;;;;;;21.14;42.23;100111.63;5114406;27;41003;-76
2022/04/28 08:01:54;;;;;;;5.50;5.00;;;;;;;21.25;41.56;100110.75;5053049;28;40563;-74
2022/04/28 08:04:22;;;;;;;6.20;5.40;;;;;;;21.53;41.61;100111.88;5069556;28;42541;-74
2022/04/28 08:06:58;;;;;;;6.83;5.43;;;;;;;21.64;40.78;100098.28;5093093;27;42808;-74
2022/04/28 08:09:26;;;;;;;5.00;4.47;;;;;;;22.07;40.18;100118.78;5114526;27;41992;-76
2022/04/28 08:11:54;;;;;;;6.10;5.60;;;;;;;22.62;39.27;100111.03;5114624;27;40261;-75
2022/04/28 08:14:24;;;;;;;5.30;4.90;;;;;;;23.24;37.48;100134.91;5140969;27;41727;-76
2022/04/28 08:16:53;;;;;;;4.63;4.23;;;;;;;23.78;37.53;100126.06;5135600;27;42301;-75
2022/04/28 08:19:21;;;;;;;5.63;4.77;;;;;;;24.23;35.92;100133.41;5133153;27;41283;-76
2022/04/28 08:22:04;;;;;;;5.07;4.67;;;;;;;24.75;34.67;100139.00;5135312;27;39041;-74
2022/04/28 08:24:33;;;;;;;4.60;4.20;;;;;;;24.92;35.27;100138.16;5134791;27;40500;-77
2022/04/28 08:27:01;;;;;;;5.93;5.00;;;;;;;24.88;34.57;100139.47;5097484;27;42286;-74
2022/04/28 08:29:30;;;;;;;5.67;4.17;;;;;;;24.88;34.70;100142.16;5103258;27;43367;-75
2022/04/28 08:32:07;;;;;;;4.87;3.80;;;;;;;25.41;34.53;100142.13;5114113;27;39838;-75
2022/04/28 08:34:36;;;;;;;4.20;3.80;;;;;;;26.36;33.28;100151.94;5122124;27;42942;-74
2022/04/28 08:37:03;;;;;;;3.90;3.60;;;;;;;27.31;30.29;100166.88;5131280;27;43563;-76
2022/04/28 08:39:31;;;;;;;4.07;3.67;;;;;;;28.69;27.50;100194.50;5113101;27;41138;-76
2022/04/28 08:42:00;;;;;;;4.90;4.30;;;;;;;30.29;25.71;100197.84;5114224;27;38883;-77
2022/04/28 08:45:08;;;;;;;4.50;4.13;;;;;;;32.37;24.05;100205.72;5073019;28;40606;-75
2022/04/28 08:47:38;;;;;;;4.07;3.73;;;;;;;33.55;22.73;100204.31;5071908;28;41689;-77
2022/04/28 08:50:25;;;;;;;4.30;3.80;;;;;;;33.35;21.16;100219.97;5124793;27;42329;-76
2022/04/28 08:53:06;;;;;;;3.70;3.40;;;;;;;32.51;22.54;100203.88;5114618;27;39139;-75
2022/04/28 08:55:36;;;;;;;3.90;3.60;;;;;;;31.96;22.44;100210.31;5127820;27;41817;-75
2022/04/28 08:58:05;;;;;;;3.90;3.60;;;;;;;31.97;23.83;100193.66;5132453;27;42975;-74
2022/04/28 09:00:40;;;;;;;3.57;3.27;;;;;;;32.08;23.88;100194.97;5128005;27;41959;-78
2022/04/28 09:03:40;;;;;;;4.33;3.93;;;;;;;31.99;24.25;100187.97;5102319;27;40525;-77
2022/04/28 09:06:34;;;;;;;3.90;3.60;;;;;;;31.93;23.05;100197.84;5130164;27;42664;-77
2022/04/28 09:09:21;;;;;;;3.87;3.57;;;;;;;31.82;21.89;100205.78;5128999;27;42602;-79
2022/04/28 09:12:08;;;;;;;4.63;3.60;;;;;;;32.51;22.52;100189.31;5131045;27;42333;-80
2022/04/28 09:15:12;;;;;;;4.57;3.63;;;;;;;33.13;21.86;100195.41;5125944;27;40858;-79
2022/04/28 09:17:44;;;;;;;4.37;3.97;;;;;;;33.18;22.28;100192.88;5113577;27;40877;-76
2022/04/28 09:20:15;;;;;;;4.10;3.80;;;;;;;34.22;21.08;100179.25;5113627;27;44393;-75
2022/04/28 09:22:46;;;;;;;5.35;4.95;;;;;;;35.58;19.33;100207.28;5129642;27;42337;-76
2022/04/28 09:25:20;;;;;;;4.05;3.75;;;;;;;36.53;19.60;100196.75;5109689;27;39451;-79
2022/04/28 09:27:52;;;;;;;3.50;3.30;;;;;;;37.52;18.98;100199.97;5094805;27;44243;-78
2022/04/28 09:30:22;;;;;;;3.78;3.47;;;;;;;37.46;17.56;100206.47;5130382;27;41383;-81
2022/04/28 09:33:12;;;;;;;3.50;3.20;;;;;;;36.33;19.25;100198.94;5124289;27;41425;-74
2022/04/28 09:36:09;;;;;;;4.18;3.78;;;;;;;35.72;20.27;100185.13;5108972;28;39988;-80
2022/04/28 09:38:54;;;;;;;4.93;4.50;;;;;;;34.87;20.08;100188.28;5115168;27;41898;-80
2022/04/28 09:44:12;;;;;;;4.50;4.10;;;;;;;32.44;22.14;100168.19;5109957;27;41226;-76
2022/04/28 09:46:43;;;;;;;5.03;4.63;;;;;;;32.20;23.43;100155.00;5113420;27;40049;-75
2022/04/28 09:49:16;;;;;;;4.40;4.00;;;;;;;31.98;21.98;100172.59;5127772;27;41471;-80
2022/04/28 09:52:09;;;;;;;3.90;3.60;;;;;;;31.68;23.91;100144.56;5119765;27;41371;-74
2022/04/28 09:55:10;;;;;;;3.90;3.60;;;;;;;32.10;21.68;100168.22;5108660;27;42346;-79
2022/04/28 09:57:58;;;;;;;4.53;4.13;;;;;;;32.73;21.69;100171.69;5130231;27;40450;-73
2022/04/28 10:00:26;;;;;;;4.03;3.63;;;;;;;32.59;21.09;100178.16;5112958;27;40038;-75
2022/04/28 10:02:57;;;;;;;4.27;3.87;;;;;;;32.10;21.82;100170.97;5132054;27;42626;-75
2022/04/28 10:05:29;;;;;;;4.50;4.10;;;;;;;31.86;23.13;100152.28;5129843;27;42094;-77
2022/04/28 10:08:06;;;;;;;3.70;3.40;;;;;;;31.78;20.93;100167.81;5132383;27;38907;-79
2022/04/28 10:10:36;;;;;;;4.07;3.67;;;;;;;31.53;21.44;100161.06;5133451;27;42740;-76
2022/04/28 10:13:07;;;;;;;4.30;3.90;;;;;;;31.45;21.28;100171.34;5116743;27;41649;-78
2022/04/28 10:15:55;;;;;;;3.30;3.00;;;;;;;30.76;20.86;100174.69;5116958;27;42062;-74
2022/04/28 10:18:29;;;;;;;3.13;2.83;;;;;;;29.89;21.84;100162.81;5130862;27;40113;-78
2022/04/28 10:21:02;;;;;;;3.27;2.97;;;;;;;29.34;21.73;100180.41;5131501;27;41703;-76
2022/04/28 10:32:55;;;;;;;3.07;2.77;;;;;;;29.11;24.03;100146.84;5139355;27;41956;-76
2022/04/28 10:35:42;;;;;;;4.43;3.30;;;;;;;29.48;23.01;100146.88;5136415;27;42794;-76
2022/04/28 10:38:14;;;;;;;3.33;3.07;;;;;;;30.50;22.13;100160.69;5139444;27;42142;-76
2022/04/28 10:40:44;;;;;;;6.10;4.13;;;;;;;31.20;24.29;100132.59;5131905;27;39970;-77
2022/04/28 10:43:37;;;;;;;4.27;3.60;;;;;;;31.44;21.69;100162.28;5132567;27;43468;-77
2022/04/28 10:46:33;;;;;;;3.90;3.50;;;;;;;31.63;19.76;100175.28;5122472;27;42812;-77
2022/04/28 10:49:03;;;;;;;8.93;4.03;;;;;;;31.80;21.91;100150.34;5125994;27;42313;-77
2022/04/28 10:51:32;;;;;;;3.87;3.57;;;;;;;30.73;20.96;100166.88;5133020;27;40495;-78
2022/04/28 10:54:21;;;;;;;3.57;3.27;;;;;;;29.52;22.88;100158.28;5132032;27;42450;-77
2022/04/28 10:57:04;;;;;;;3.27;2.90;;;;;;;29.46;21.11;100165.31;5133871;27;42826;-77
2022/04/28 10:59:37;;;;;;;2.53;2.20;;;;;;;28.72;21.59;100169.63;5129517;27;43247;-78
2022/04/28 11:02:50;;;;;;;3.80;2.70;;;;;;;27.94;22.00;100169.66;5115153;27;39920;-77
2022/04/28 11:05:50;;;;;;;3.10;2.60;;;;;;;27.63;23.70;100155.09;5115451;27;40661;-76
2022/04/28 11:08:34;;;;;;;3.70;3.30;;;;;;;28.72;24.32;100131.44;5131797;27;42633;-77
2022/04/28 11:11:09;;;;;;;3.07;2.77;;;;;;;29.59;21.58;100162.78;5115262;27;44502;-77
2022/04/28 11:13:37;;;;;;;2.50;2.30;;;;;;;31.13;19.61;100175.50;5128082;27;40852;-79
2022/04/28 11:16:05;;;;;;;2.80;2.20;;;;;;;31.30;18.87;100176.91;5106211;28;40368;-78
2022/04/28 11:18:34;;;;;;;2.47;2.17;;;;;;;30.58;20.93;100158.69;5131823;27;43049;-78
2022/04/28 11:21:03;;;;;;;2.40;2.20;;;;;;;29.93;20.89;100158.66;5132903;27;42404;-76
2022/04/28 11:23:36;;;;;;;2.43;2.13;;;;;;;29.34;18.70;100169.50;5133324;27;40282;-78
2022/04/28 11:26:20;;;;;;;2.33;2.10;;;;;;;28.80;19.87;100172.34;5129744;27;41508;-76
2022/04/28 11:28:49;;;;;;;2.33;2.13;;;;;;;29.51;20.71;100157.44;5128895;27;42683;-76
2022/04/28 11:31:19;;;;;;;2.30;2.03;;;;;;;30.55;21.73;100147.28;5132016;27;42184;-77
2022/04/28 11:33:49;;;;;;;3.20;3.00;;;;;;;31.67;19.20;100164.78;5132186;27;40502;-77
2022/04/28 11:36:24;;;;;;;2.40;2.20;;;;;;;32.89;19.82;100154.81;5131779;27;42340;-78
2022/04/28 11:38:54;;;;;;;2.67;2.47;;;;;;;33.40;19.23;100156.97;5132030;27;44382;-78
2022/04/28 11:41:33;;;;;;;3.23;2.97;;;;;;;33.79;17.09;100173.44;5131805;27;43010;-78
2022/04/28 11:44:05;;;;;;;2.60;2.40;;;;;;;34.20;17.32;100164.88;5130855;27;40892;-77
2022/04/28 11:46:35;;;;;;;2.30;2.10;;;;;;;34.66;16.85;100171.25;5114708;27;42885;-78
2022/04/28 11:49:03;;;;;;;2.67;2.47;;;;;;;34.83;16.85;100161.44;5131593;27;43860;-76
2022/04/28 11:51:34;;;;;;;2.30;2.07;;;;;;;34.89;16.79;100164.13;5132993;27;42850;-79
2022/04/28 11:54:03;;;;;;;2.40;2.23;;;;;;;35.44;16.09;100167.13;5116954;27;40336;-78
2022/04/28 11:56:33;;;;;;;2.20;2.10;;;;;;;36.60;16.10;100156.06;5131875;27;41933;-78
2022/04/28 11:59:05;;;;;;;3.00;2.70;;;;;;;37.83;15.96;100160.94;5131223;27;42995;-78
2022/04/28 12:01:35;;;;;;;2.50;2.30;;;;;;;38.73;14.35;100166.75;5130350;27;43128;-77
2022/04/28 12:04:03;;;;;;;2.83;2.07;;;;;;;39.48;14.38;100158.13;5131528;27;40386;-78
2022/04/28 12:06:31;;;;;;;2.63;2.43;;;;;;;40.06;13.52;100165.09;5132860;27;42723;-78
2022/04/28 12:14:21;;;;;;;2.53;2.33;;;;;;;41.13;13.16;100161.66;5130981;27;44916;-78
2022/04/28 12:14:35;;;;;;;2.35;2.13;;;;;;;42.45;12.51;100161.69;5113964;27;38516;-77
2022/04/28 12:19:53;;;;;;;2.40;2.30;;;;;;;43.69;11.35;100152.91;5113737;27;43375;-79
2022/04/28 12:22:26;;;;;;;1.98;1.88;;;;;;;44.15;10.71;100158.38;5131322;27;42312;-78
2022/04/28 12:24:53;;;;;;;2.35;1.95;;;;;;;44.66;10.80;100166.53;5127262;27;39660;-78
2022/04/28 12:27:22;;;;;;;2.38;2.15;;;;;;;45.17;10.54;100155.03;5131143;27;43571;-77
2022/04/28 12:29:53;;;;;;;2.42;2.10;;;;;;;45.57;11.16;100146.28;5113128;27;42348;-77
2022/04/28 12:32:21;;;;;;;2.35;2.15;;;;;;;45.93;10.32;100146.75;5132172;27;42269;-79
2022/04/28 12:34:59;;;;;;;2.25;2.15;;;;;;;45.79;10.27;100141.00;5131193;27;39922;-77
2022/04/28 12:37:29;;;;;;;2.13;2.03;;;;;;;43.80;10.82;100147.31;5119491;27;40865;-78